createdAt,value
2023-03-06T00:00:57.052Z,14.98
2023-03-06T00:03:24.456Z,14.50
2023-03-06T00:05:52.091Z,15.07
2023-03-06T00:08:18.736Z,16.10
2023-03-06T00:10:45.844Z,15.20
2023-03-06T00:13:15.593Z,14.90
2023-03-06T00:15:42.877Z,15.90
2023-03-06T00:18:09.483Z,16.17
2023-03-06T00:20:37.156Z,17.77
2023-03-06T00:23:03.820Z,19.92
2023-03-06T00:25:31.250Z,20.83
2023-03-06T00:27:57.855Z,22.42
2023-03-06T00:30:25.433Z,22.02
2023-03-06T00:32:52.910Z,23.35
2023-03-06T00:35:20.084Z,22.13
2023-03-06T00:37:47.470Z,24.02
2023-03-06T00:40:17.582Z,23.92
2023-03-06T00:42:45.022Z,23.58
2023-03-06T00:45:13.225Z,23.73
2023-03-06T00:47:40.325Z,23.58
2023-03-06T00:50:09.135Z,22.83
2023-03-06T00:52:36.160Z,24.55
2023-03-06T00:55:03.356Z,24.20
2023-03-06T00:57:30.524Z,23.33
2023-03-06T00:59:58.059Z,23.02
2023-03-06T01:02:25.528Z,23.02
2023-03-06T01:04:54.341Z,25.40
2023-03-06T01:07:21.647Z,24.45
2023-03-06T01:09:48.314Z,24.48
2023-03-06T01:12:15.848Z,25.95
2023-03-06T01:14:42.551Z,25.98
2023-03-06T01:17:10.254Z,26.33
2023-03-06T01:19:36.925Z,25.70
2023-03-06T01:22:04.442Z,27.70
2023-03-06T01:24:31.635Z,27.95
2023-03-06T01:26:58.972Z,28.00
2023-03-06T01:29:26.326Z,27.58
2023-03-06T01:31:53.848Z,27.67
2023-03-06T01:34:21.181Z,29.52
2023-03-06T01:36:48.758Z,29.48
2023-03-06T01:39:15.688Z,29.25
2023-03-06T01:41:42.998Z,30.67
2023-03-06T01:44:13.467Z,31.30
2023-03-06T01:46:43.241Z,30.90
2023-03-06T01:49:18.822Z,32.38
2023-03-06T01:52:14.496Z,32.58
2023-03-06T01:54:55.526Z,32.75
2023-03-06T01:57:37.828Z,33.03
2023-03-06T02:00:10.032Z,31.92
2023-03-06T02:02:47.394Z,33.78
2023-03-06T02:05:14.861Z,32.33
2023-03-06T02:07:44.096Z,33.70
2023-03-06T02:10:14.694Z,21.70
2023-03-06T02:12:43.568Z,34.78
2023-03-06T02:15:17.100Z,33.88
2023-03-06T02:17:46.060Z,33.53
2023-03-06T02:20:57.026Z,34.83
2023-03-06T02:23:56.134Z,33.67
2023-03-06T02:26:24.746Z,33.00
2023-03-06T02:28:51.474Z,34.78
2023-03-06T02:31:25.685Z,35.15
2023-03-06T02:34:28.751Z,34.65
2023-03-06T02:36:59.663Z,33.03
2023-03-06T02:39:29.949Z,35.10
2023-03-06T02:41:56.801Z,35.13
2023-03-06T02:44:25.834Z,33.30
2023-03-06T02:46:53.127Z,32.03
2023-03-06T02:49:19.784Z,33.05
2023-03-06T02:51:47.698Z,29.95
2023-03-06T02:54:14.515Z,32.80
2023-03-06T02:56:42.782Z,30.13
2023-03-06T02:59:09.498Z,31.27
2023-03-06T03:01:36.980Z,30.58
2023-03-06T03:04:03.799Z,30.63
2023-03-06T03:06:31.405Z,32.25
2023-03-06T03:08:58.880Z,31.92
2023-03-06T03:11:26.193Z,30.77
2023-03-06T03:13:53.264Z,32.00
2023-03-06T03:16:24.121Z,29.00
2023-03-06T03:18:51.171Z,29.77
2023-03-06T03:21:21.253Z,30.27
2023-03-06T03:23:48.840Z,30.10
2023-03-06T03:26:19.072Z,29.92
2023-03-06T03:29:05.189Z,30.40
2023-03-06T03:31:32.844Z,32.20
2023-03-06T03:34:01.108Z,29.75
2023-03-06T03:36:32.075Z,31.15
2023-03-06T03:39:00.130Z,30.77
2023-03-06T03:41:27.707Z,30.88
2023-03-06T03:43:54.661Z,31.60
2023-03-06T03:46:22.781Z,33.63
2023-03-06T03:48:52.106Z,34.75
2023-03-06T03:51:19.853Z,35.05
2023-03-06T03:53:51.050Z,35.90
2023-03-06T03:56:21.799Z,35.88
2023-03-06T03:58:56.159Z,38.05
2023-03-06T04:01:25.185Z,39.90
2023-03-06T04:03:52.050Z,39.20
2023-03-06T04:06:19.972Z,39.10
2023-03-06T04:08:47.699Z,40.17
2023-03-06T04:11:15.417Z,41.97
2023-03-06T04:13:42.148Z,40.67
2023-03-06T04:16:09.852Z,42.22
2023-03-06T04:18:38.400Z,41.97
2023-03-06T04:21:06.939Z,44.20
2023-03-06T04:23:33.746Z,40.50
2023-03-06T04:26:01.179Z,41.25
2023-03-06T04:28:28.622Z,40.88
2023-03-06T04:30:57.004Z,38.83
2023-03-06T04:33:24.204Z,34.72
2023-03-06T04:35:51.541Z,33.83
2023-03-06T04:38:23.493Z,32.53
2023-03-06T04:40:51.045Z,32.65
2023-03-06T04:43:18.046Z,32.08
2023-03-06T04:45:45.107Z,31.02
2023-03-06T04:48:17.368Z,31.25
2023-03-06T04:50:44.989Z,30.65
2023-03-06T04:53:14.384Z,32.20
2023-03-06T04:55:41.773Z,30.92
2023-03-06T04:58:09.768Z,29.65
2023-03-06T05:00:37.072Z,29.70
2023-03-06T05:03:03.747Z,30.40
2023-03-06T05:05:31.123Z,30.33
2023-03-06T05:07:57.785Z,29.77
2023-03-06T05:10:24.960Z,31.92
2023-03-06T05:12:51.635Z,31.25
2023-03-06T05:15:19.010Z,30.85
2023-03-06T05:17:47.344Z,31.33
2023-03-06T05:20:15.747Z,31.77
2023-03-06T05:22:42.694Z,31.98
2023-03-06T05:25:10.921Z,32.28
2023-03-06T05:27:38.135Z,33.08
2023-03-06T05:30:06.307Z,34.45
2023-03-06T05:32:35.458Z,31.80
2023-03-06T05:35:03.982Z,33.65
2023-03-06T05:37:31.126Z,33.30
2023-03-06T05:39:58.569Z,29.90
2023-03-06T05:42:27.605Z,30.40
2023-03-06T05:44:55.830Z,30.48
2023-03-06T05:47:22.510Z,28.05
2023-03-06T05:49:50.015Z,29.67
2023-03-06T05:52:17.428Z,28.23
2023-03-06T05:54:44.818Z,29.05
2023-03-06T05:57:11.532Z,30.88
2023-03-06T05:59:38.805Z,30.98
2023-03-06T06:02:05.758Z,30.15
2023-03-06T06:04:33.080Z,32.22
2023-03-06T06:07:00.776Z,32.70
2023-03-06T06:09:28.841Z,34.50
2023-03-06T06:11:59.593Z,35.28
2023-03-06T06:14:27.815Z,34.65
2023-03-06T06:16:54.827Z,35.15
2023-03-06T06:19:23.240Z,33.67
2023-03-06T06:21:52.205Z,32.75
2023-03-06T06:24:21.740Z,31.17
2023-03-06T06:26:53.008Z,31.73
2023-03-06T06:29:21.078Z,33.38
2023-03-06T06:31:48.147Z,34.60
2023-03-06T06:34:15.537Z,31.58
2023-03-06T06:36:42.242Z,32.03
2023-03-06T06:39:11.262Z,31.60
2023-03-06T06:41:56.926Z,32.05
2023-03-06T06:44:25.150Z,31.05
2023-03-06T06:49:40.250Z,28.73
2023-03-06T06:52:07.511Z,28.15
2023-03-06T06:54:34.984Z,30.10
2023-03-06T06:57:02.082Z,31.83
2023-03-06T06:59:29.335Z,30.70
2023-03-06T07:01:55.968Z,31.70
2023-03-06T07:04:23.374Z,31.67
2023-03-06T07:06:50.023Z,33.15
2023-03-06T07:09:17.287Z,34.72
2023-03-06T07:11:43.979Z,37.40
2023-03-06T07:14:11.192Z,38.20
2023-03-06T07:16:37.785Z,39.88
2023-03-06T07:19:05.252Z,42.97
2023-03-06T07:21:31.903Z,42.38
2023-03-06T07:24:01.234Z,46.00
2023-03-06T07:26:28.378Z,48.92
2023-03-06T07:28:55.755Z,52.08
2023-03-06T07:31:25.726Z,50.80
2023-03-06T07:33:54.272Z,53.47
2023-03-06T07:36:23.219Z,53.83
2023-03-06T07:38:50.636Z,53.97
2023-03-06T07:41:20.399Z,52.45
2023-03-06T07:43:49.665Z,51.70
2023-03-06T07:46:16.962Z,53.28
2023-03-06T07:48:44.866Z,52.72
2023-03-06T07:51:20.288Z,51.30
2023-03-06T07:53:48.876Z,52.90
2023-03-06T07:56:15.959Z,49.83
2023-03-06T07:58:45.191Z,50.33
2023-03-06T08:01:15.807Z,50.70
2023-03-06T08:03:43.384Z,51.05
2023-03-06T08:06:13.090Z,47.20
2023-03-06T08:08:42.716Z,45.85
2023-03-06T08:11:12.349Z,45.05
2023-03-06T08:13:40.248Z,43.50
2023-03-06T08:16:07.296Z,45.88
2023-03-06T08:18:35.145Z,46.25
2023-03-06T08:21:09.660Z,44.60
2023-03-06T08:23:37.465Z,46.03
2023-03-06T08:26:08.629Z,43.70
2023-03-06T08:28:35.833Z,44.78
2023-03-06T08:31:29.315Z,44.30
2023-03-06T08:33:58.242Z,46.20
2023-03-06T08:36:25.138Z,44.70
2023-03-06T08:38:52.533Z,45.78
2023-03-06T08:41:20.381Z,44.13
2023-03-06T08:43:48.336Z,45.15
2023-03-06T08:46:15.565Z,44.58
2023-03-06T08:48:42.824Z,43.55
2023-03-06T08:51:10.464Z,43.60
2023-03-06T08:53:43.635Z,41.60
2023-03-06T08:56:28.426Z,43.00
2023-03-06T08:58:57.962Z,42.60
2023-03-06T09:01:30.428Z,39.67
2023-03-06T09:03:59.388Z,38.00
2023-03-06T09:06:30.079Z,39.58
2023-03-06T09:08:56.952Z,38.28
2023-03-06T09:11:25.690Z,37.72
2023-03-06T09:13:53.719Z,39.00
2023-03-06T09:16:20.784Z,35.92
2023-03-06T09:18:50.212Z,38.00
2023-03-06T09:21:16.873Z,36.97
2023-03-06T09:23:44.093Z,38.70
2023-03-06T09:26:12.416Z,36.72
2023-03-06T09:28:40.402Z,39.25
2023-03-06T09:31:10.239Z,36.28
2023-03-06T09:33:37.106Z,36.97
2023-03-06T09:36:06.060Z,35.45
2023-03-06T09:38:32.839Z,38.28
2023-03-06T09:41:02.926Z,35.28
2023-03-06T09:43:40.301Z,35.42
2023-03-06T09:46:13.826Z,34.63
2023-03-06T09:49:13.532Z,34.47
2023-03-06T09:52:23.219Z,32.97
2023-03-06T09:55:10.126Z,32.80
2023-03-06T09:58:17.179Z,32.10
2023-03-06T10:01:09.707Z,31.73
2023-03-06T10:03:48.676Z,33.78
2023-03-06T10:06:22.249Z,33.85
2023-03-06T10:08:52.853Z,35.40
2023-03-06T10:11:27.786Z,34.70
2023-03-06T10:14:12.408Z,36.72
2023-03-06T10:16:39.844Z,36.40
2023-03-06T10:19:17.163Z,35.80
2023-03-06T10:22:02.903Z,34.38
2023-03-06T10:24:58.628Z,33.85
2023-03-06T10:27:44.042Z,34.03
2023-03-06T10:30:24.163Z,32.95
2023-03-06T10:32:59.184Z,35.35
2023-03-06T10:35:32.644Z,33.13
2023-03-06T10:38:21.722Z,36.05
2023-03-06T10:41:11.611Z,35.65
2023-03-06T10:43:41.469Z,36.83
2023-03-06T10:46:10.593Z,35.78
2023-03-06T10:48:41.707Z,35.28
2023-03-06T10:51:22.191Z,36.75
2023-03-06T10:54:01.000Z,34.45
2023-03-06T10:56:36.782Z,35.22
2023-03-06T10:59:07.620Z,36.38
2023-03-06T11:01:35.251Z,36.47
2023-03-06T11:04:14.882Z,37.25
2023-03-06T11:06:43.045Z,36.63
2023-03-06T11:09:20.347Z,33.83
2023-03-06T11:11:47.824Z,33.80
2023-03-06T11:14:22.714Z,34.58
2023-03-06T11:16:55.315Z,31.17
2023-03-06T11:19:27.367Z,31.73
2023-03-06T11:22:06.777Z,31.77
2023-03-06T11:24:39.257Z,31.25
2023-03-06T11:27:31.082Z,29.90
2023-03-06T11:29:59.784Z,27.38
2023-03-06T11:32:33.833Z,27.27
2023-03-06T11:35:10.052Z,25.48
2023-03-06T11:37:54.111Z,27.25
2023-03-06T11:40:24.743Z,25.65
2023-03-06T11:43:26.907Z,25.48
2023-03-06T11:46:17.492Z,25.70
2023-03-06T11:48:51.844Z,26.40
2023-03-06T11:51:26.782Z,25.27
2023-03-06T11:53:55.160Z,24.25
2023-03-06T11:56:36.136Z,22.83
2023-03-06T11:59:30.963Z,26.90
2023-03-06T12:02:09.750Z,26.95
2023-03-06T12:04:53.079Z,26.63
2023-03-06T12:07:26.497Z,25.80
2023-03-06T12:10:23.094Z,26.42
2023-03-06T12:12:50.580Z,24.65
2023-03-06T12:15:32.577Z,24.77
2023-03-06T12:18:24.515Z,22.97
2023-03-06T12:21:07.024Z,24.83
2023-03-06T12:23:57.679Z,24.73
2023-03-06T12:26:43.004Z,24.85
2023-03-06T12:29:28.672Z,24.30
2023-03-06T12:32:35.082Z,24.20
2023-03-06T12:35:32.649Z,26.23
2023-03-06T12:38:19.922Z,26.15
2023-03-06T12:41:17.825Z,25.63
2023-03-06T12:43:50.942Z,24.90
2023-03-06T12:46:25.676Z,24.52
2023-03-06T12:48:58.462Z,25.13
2023-03-06T12:51:25.183Z,25.65
2023-03-06T12:53:53.239Z,27.05
2023-03-06T12:56:22.062Z,25.65
2023-03-06T12:59:02.752Z,26.50
2023-03-06T13:01:55.401Z,25.67
2023-03-06T13:04:29.510Z,23.70
2023-03-06T13:07:34.798Z,22.83
2023-03-06T13:10:23.158Z,24.58
2023-03-06T13:13:01.802Z,24.63
2023-03-06T13:15:42.988Z,23.33
2023-03-06T13:18:22.308Z,22.65
2023-03-06T13:20:51.117Z,22.13
2023-03-06T13:23:30.626Z,24.63
2023-03-06T13:25:59.828Z,25.40
2023-03-06T13:28:40.463Z,22.27
2023-03-06T13:31:18.237Z,22.92
2023-03-06T13:34:00.941Z,24.02
2023-03-06T13:36:38.319Z,24.67
2023-03-06T13:39:13.336Z,24.05
2023-03-06T13:41:58.613Z,22.60
2023-03-06T13:44:25.867Z,23.40
2023-03-06T13:47:08.288Z,22.77
2023-03-06T13:49:35.851Z,23.42
2023-03-06T13:52:21.084Z,21.20
2023-03-06T13:55:11.079Z,20.80
2023-03-06T13:57:56.797Z,17.40
2023-03-06T14:00:52.847Z,16.02
2023-03-06T14:03:44.594Z,16.50
2023-03-06T14:06:48.379Z,16.27
2023-03-06T14:09:29.748Z,15.63
2023-03-06T14:12:18.503Z,17.77
2023-03-06T14:14:52.965Z,17.70
2023-03-06T14:17:32.100Z,18.63
2023-03-06T14:20:05.921Z,15.77
2023-03-06T14:22:32.579Z,18.73
2023-03-06T14:25:29.996Z,21.30
2023-03-06T14:28:05.650Z,24.05
2023-03-06T14:30:49.742Z,26.10
2023-03-06T14:33:27.297Z,26.63
2023-03-06T14:35:58.152Z,30.10
2023-03-06T14:38:26.293Z,30.60
2023-03-06T14:40:53.328Z,28.85
2023-03-06T14:43:23.891Z,27.67
2023-03-06T14:45:56.513Z,28.75
2023-03-06T14:48:27.179Z,40.70
2023-03-06T14:50:57.824Z,37.42
2023-03-06T14:53:30.684Z,38.95
2023-03-06T14:56:00.952Z,38.20
2023-03-06T14:58:33.518Z,28.15
2023-03-06T15:01:05.571Z,37.03
2023-03-06T15:03:36.331Z,36.40
2023-03-06T15:06:04.135Z,29.33
2023-03-06T15:08:34.347Z,32.63
2023-03-06T15:11:04.008Z,29.13
2023-03-06T15:13:32.726Z,40.38
2023-03-06T15:16:06.866Z,30.58
2023-03-06T15:18:40.493Z,30.40
2023-03-06T15:21:13.332Z,33.05
2023-03-06T15:23:43.888Z,29.20
2023-03-06T15:26:29.364Z,29.15
2023-03-06T15:29:09.644Z,29.08
2023-03-06T15:31:42.042Z,26.75
2023-03-06T15:34:12.083Z,25.52
2023-03-06T15:36:42.653Z,25.98
2023-03-06T15:39:36.622Z,24.05
2023-03-06T15:42:24.973Z,24.25
2023-03-06T15:44:55.071Z,22.88
2023-03-06T15:47:22.489Z,23.75
2023-03-06T15:49:52.175Z,25.10
2023-03-06T15:52:20.690Z,24.73
2023-03-06T15:54:49.305Z,25.80
2023-03-06T15:57:29.474Z,26.13
2023-03-06T15:59:56.664Z,27.13
2023-03-06T16:02:24.455Z,26.48
2023-03-06T16:04:52.612Z,25.52
2023-03-06T16:07:20.424Z,23.63
2023-03-06T16:09:47.680Z,23.20
2023-03-06T16:12:17.366Z,27.30
2023-03-06T16:14:45.938Z,30.13
2023-03-06T16:17:12.865Z,27.48
2023-03-06T16:19:40.556Z,26.52
2023-03-06T16:22:08.164Z,30.77
2023-03-06T16:24:35.184Z,30.95
2023-03-06T16:27:02.592Z,27.38
2023-03-06T16:29:30.775Z,28.65
2023-03-06T16:31:58.757Z,25.38
2023-03-06T16:34:26.159Z,28.17
2023-03-06T16:36:52.889Z,27.05
2023-03-06T16:39:22.587Z,25.48
2023-03-06T16:41:50.182Z,26.05
2023-03-06T16:44:17.679Z,25.40
2023-03-06T16:46:46.872Z,25.65
2023-03-06T16:49:19.962Z,25.45
2023-03-06T16:51:46.852Z,25.73
2023-03-06T16:54:14.497Z,26.38
2023-03-06T16:56:41.377Z,26.45
2023-03-06T16:59:08.825Z,26.30
2023-03-06T17:01:35.491Z,26.83
2023-03-06T17:04:03.754Z,27.42
2023-03-06T17:06:31.348Z,28.27
2023-03-06T17:08:59.776Z,28.38
2023-03-06T17:11:26.978Z,28.35
2023-03-06T17:13:55.486Z,27.55
2023-03-06T17:16:22.577Z,28.48
2023-03-06T17:18:50.814Z,28.65
2023-03-06T17:21:17.507Z,28.27
2023-03-06T17:23:44.843Z,27.05
2023-03-06T17:26:15.029Z,28.42
2023-03-06T17:28:42.642Z,29.23
2023-03-06T17:31:18.785Z,27.92
2023-03-06T17:33:46.228Z,28.90
2023-03-06T17:36:14.447Z,28.75
2023-03-06T17:38:41.930Z,28.80
2023-03-06T17:41:10.524Z,27.30
2023-03-06T17:43:37.880Z,30.67
2023-03-06T17:46:10.368Z,29.27
2023-03-06T17:48:37.695Z,29.35
2023-03-06T17:51:06.181Z,29.63
2023-03-06T17:53:33.288Z,30.23
2023-03-06T17:56:02.556Z,30.52
2023-03-06T17:58:29.135Z,30.92
2023-03-06T18:00:56.451Z,30.45
2023-03-06T18:03:23.112Z,30.50
2023-03-06T18:06:04.693Z,29.67
2023-03-06T18:08:32.106Z,32.05
2023-03-06T18:11:01.136Z,29.88
2023-03-06T18:13:27.768Z,30.23
2023-03-06T18:15:55.163Z,29.70
2023-03-06T18:18:21.863Z,28.38
2023-03-06T18:20:49.339Z,30.95
2023-03-06T18:23:16.171Z,28.35
2023-03-06T18:25:43.867Z,29.23
2023-03-06T18:28:10.703Z,30.60
2023-03-06T18:30:41.319Z,30.52
2023-03-06T18:33:10.048Z,30.60
2023-03-06T18:35:37.241Z,29.58
2023-03-06T18:38:04.348Z,31.40
2023-03-06T18:43:21.677Z,28.55
2023-03-06T18:45:58.122Z,29.02
2023-03-06T18:48:25.664Z,28.42
2023-03-06T18:50:52.281Z,28.30
2023-03-06T18:53:19.976Z,29.23
2023-03-06T18:55:52.200Z,28.73
2023-03-06T18:58:19.234Z,21.00
2023-03-06T19:00:46.524Z,28.20
2023-03-06T19:03:14.642Z,27.13
2023-03-06T19:05:43.693Z,28.10
2023-03-06T19:08:10.950Z,26.83
2023-03-06T19:10:41.107Z,25.77
2023-03-06T19:13:09.665Z,26.83
2023-03-06T19:15:48.244Z,26.13
2023-03-06T19:18:17.888Z,28.10
2023-03-06T19:20:45.605Z,29.45
2023-03-06T19:23:12.430Z,30.15
2023-03-06T19:25:40.080Z,31.77
2023-03-06T19:28:06.752Z,29.42
2023-03-06T19:30:34.024Z,30.55
2023-03-06T19:33:00.592Z,31.77
2023-03-06T19:35:27.997Z,27.67
2023-03-06T19:37:54.676Z,32.22
2023-03-06T19:49:21.955Z,27.83
2023-03-06T19:51:58.187Z,27.35
2023-03-06T19:54:25.688Z,26.88
2023-03-06T19:56:53.311Z,27.27
2023-03-06T20:02:27.589Z,26.15
2023-03-06T20:04:54.745Z,25.95
2023-03-06T20:07:21.576Z,27.45
2023-03-06T20:09:49.045Z,27.02
2023-03-06T20:12:16.183Z,26.98
2023-03-06T20:14:43.563Z,28.83
2023-03-06T20:17:10.187Z,26.73
2023-03-06T20:19:37.506Z,27.55
2023-03-06T20:22:04.646Z,27.75
2023-03-06T20:24:31.932Z,27.38
2023-03-06T20:26:59.334Z,26.67
2023-03-06T20:29:28.195Z,26.80
2023-03-06T20:31:57.237Z,26.48
2023-03-06T20:34:25.558Z,27.95
2023-03-06T20:36:52.576Z,26.13
2023-03-06T20:39:24.196Z,25.60
2023-03-06T20:41:52.026Z,26.88
2023-03-06T20:44:20.210Z,26.55
2023-03-06T20:46:46.980Z,27.77
2023-03-06T20:49:14.920Z,26.60
2023-03-06T20:51:42.306Z,25.60
2023-03-06T20:54:13.144Z,27.45
2023-03-06T20:56:41.048Z,26.77
2023-03-06T20:59:11.721Z,27.75
2023-03-06T21:01:41.555Z,26.48
2023-03-06T21:04:10.741Z,26.60
2023-03-06T21:06:37.898Z,27.67
2023-03-06T21:09:07.038Z,27.85
2023-03-06T21:11:34.756Z,28.27
2023-03-06T21:14:02.501Z,28.98
2023-03-06T21:16:30.591Z,27.58
2023-03-06T21:18:59.100Z,28.85
2023-03-06T21:21:30.483Z,28.80
2023-03-06T21:23:58.211Z,30.73
2023-03-06T21:26:28.154Z,30.17
2023-03-06T21:28:56.815Z,31.25
2023-03-06T21:31:24.347Z,32.53
2023-03-06T21:33:51.634Z,33.88
2023-03-06T21:36:21.614Z,31.20
2023-03-06T21:38:50.300Z,33.45
2023-03-06T21:41:28.913Z,33.65
2023-03-06T21:43:57.173Z,35.33
2023-03-06T21:46:25.847Z,32.95
2023-03-06T21:48:52.955Z,33.70
2023-03-06T21:51:21.067Z,34.03
2023-03-06T21:53:48.334Z,36.03
2023-03-06T21:56:17.614Z,35.38
2023-03-06T21:58:45.339Z,34.03
2023-03-06T22:01:23.060Z,34.40
2023-03-06T22:03:50.007Z,35.58
2023-03-06T22:06:20.240Z,36.40
2023-03-06T22:08:47.293Z,34.75
2023-03-06T22:11:22.104Z,34.22
2023-03-06T22:13:49.116Z,33.50
2023-03-06T22:16:17.887Z,33.30
2023-03-06T22:18:46.368Z,32.72
2023-03-06T22:21:16.429Z,35.05
2023-03-06T22:23:43.148Z,34.05
2023-03-06T22:26:13.031Z,32.10
2023-03-06T22:28:40.782Z,31.38
2023-03-06T22:31:20.002Z,29.98
2023-03-06T22:34:01.857Z,30.50
2023-03-06T22:36:33.691Z,29.75
2023-03-06T22:39:02.109Z,28.77
2023-03-06T22:41:29.529Z,27.75
2023-03-06T22:44:02.032Z,27.42
2023-03-06T22:46:30.272Z,27.38
2023-03-06T22:48:58.016Z,25.35
2023-03-06T22:51:26.108Z,25.15
2023-03-06T22:53:52.963Z,26.13
2023-03-06T22:56:21.956Z,24.48
2023-03-06T22:58:48.662Z,23.38
2023-03-06T23:01:18.653Z,22.67
2023-03-06T23:03:50.397Z,21.80
2023-03-06T23:06:20.796Z,20.70
2023-03-06T23:08:53.343Z,19.88
2023-03-06T23:11:21.403Z,19.52
2023-03-06T23:14:07.105Z,20.35
2023-03-06T23:16:53.284Z,18.80
2023-03-06T23:19:38.712Z,19.75
2023-03-06T23:22:24.507Z,20.10
2023-03-06T23:25:09.843Z,19.13
2023-03-06T23:27:37.203Z,19.70
2023-03-06T23:30:12.066Z,18.92
2023-03-06T23:32:39.787Z,18.25
2023-03-06T23:35:07.669Z,19.30
2023-03-06T23:37:35.043Z,17.80
2023-03-06T23:40:02.476Z,18.75
2023-03-06T23:42:30.172Z,17.95
2023-03-06T23:44:57.024Z,18.60
2023-03-06T23:47:24.336Z,18.33
2023-03-06T23:49:51.017Z,18.55
2023-03-06T23:52:18.927Z,18.17
2023-03-06T23:54:48.846Z,15.95
2023-03-06T23:57:16.481Z,16.65
2023-03-06T23:59:43.925Z,16.88
